Flight Track Log - Related Links

Times and Time Zones

All times are in EDT time to prevent confusion due to time zone crossing. See the N960DL flight status page for this flight to view local times or setup timezone preferences in your user account.

Time Position Orientation Groundspeed Altitude Reporting Facility
EDT Latitude Longitude Course Direction KTS MPH feet Rate Location/Type
Wed 06:21:49 PM 42.9475 -85.5306 56° Northeast 209 241 3,300  Level Chicago Center
Wed 06:22:51 PM 43.0106 -85.5286 North 231 266 5,700 1,935 Climbing Chicago Center
Wed 06:23:00 PM 42.8794 -85.2328 63° Northeast  Level FlightAware Approximate
Wed 06:23:53 PM 43.0722 -85.4797 30° Northeast 260 299 7,300  Level Chicago Center
Wed 06:24:00 PM 42.9241 -85.1136 63° Northeast  Level FlightAware Approximate
Wed 06:24:54 PM 43.0933 -85.3669 76° East 306 352 9,500  Level Chicago Center
Wed 06:25:00 PM 42.9693 -84.9948 56° Northeast  Level FlightAware Approximate
Wed 06:25:56 PM 43.1367 -85.2561 62° Northeast 327 376 11,200  Level Chicago Center
Wed 06:26:00 PM 43.0159 -84.8778 69° East  Level FlightAware Approximate
Wed 06:26:58 PM 43.2028 -85.1031 59° Northeast 381 438 13,600  Level Chicago Center
Wed 06:27:00 PM 43.0616 -84.7601 56° Northeast  Level FlightAware Approximate
Wed 06:27:59 PM 43.2600 -84.9650 60° Northeast 409 471 15,000  Level Chicago Center
Wed 06:29:01 PM 43.3181 -84.8283 60° Northeast 416 479 15,000 -48 Level Chicago Center
Wed 06:30:03 PM 43.3753 -84.7028 58° Northeast 393 452 14,900  Descending Chicago Center
Wed 06:31:04 PM 43.3564 -84.5597 100° East 385 443 15,000 49 Climbing Chicago Center
Wed 06:32:06 PM 43.2856 -84.4417 129° Southeast 398 458 15,000  Level Chicago Center
Wed 06:32:56 PM 43.2181 -84.3411 133° Southeast 372 428 15,000  Level Cleveland Center
Wed 06:33:56 PM 43.1408 -84.2167 130° Southeast 387 445 15,000  Level Cleveland Center
Wed 06:34:56 PM 43.0672 -84.0989 131° Southeast 397 457 15,000  Level Cleveland Center
Wed 06:35:56 PM 42.9936 -83.9811 130° Southeast 397 457 15,000  Level Cleveland Center
Wed 06:36:56 PM 42.9219 -83.8694 131° Southeast 397 457 15,000  Level Cleveland Center
Wed 06:37:56 PM 42.8500 -83.7550 131° Southeast 397 457 15,000 -100 Level Cleveland Center
Wed 06:38:56 PM 42.7892 -83.6897 142° Southeast 382 440 14,800 -500 Descending Cleveland Center
Wed 06:39:56 PM 42.7328 -83.7747 228° Southwest 189 217 14,000 -800 Descending Cleveland Center
Wed 06:40:56 PM 42.7550 -83.8692 288° West 167 192 13,200 -500 Descending Cleveland Center
Wed 06:41:56 PM 42.8247 -83.9181 333° Northwest 189 217 13,000 -500 Descending Cleveland Center
Wed 06:42:56 PM 42.9047 -83.8883 15° North 225 259 12,200 -850 Descending Cleveland Center
Wed 06:43:56 PM 42.9831 -83.8414 24° Northeast 265 305 11,300 -804 Descending Cleveland Center
Wed 06:44:33 PM 43.0319 -83.8100 25° Northeast 309 356 10,900 -300 Descending Cleveland Center
Wed 06:44:56 PM 43.0478 -83.7708 61° Northeast 279 321 11,000 81 Climbing Cleveland Center
Wed 06:45:47 PM 43.0169 -83.6783 114° Southeast 338 389 11,000  Level Cleveland Center
Wed 06:46:48 PM 42.9331 -83.6883 185° South 302 348 11,000  Level Cleveland Center
Wed 06:47:56 PM 42.8464 -83.7322 200° South 230 265 11,000 -295 Level Cleveland Center
Wed 06:48:50 PM 42.7675 -83.7256 176° South 307 353 10,400 -983 Descending Cleveland Center
Wed 06:49:52 PM 42.6889 -83.7017 167° South 291 335 9,100 -829 Descending Cleveland Center
Wed 06:50:53 PM 42.6367 -83.6258 133° Southeast 267 307 8,700 -934 Descending Cleveland Center
Wed 06:51:54 PM 42.5972 -83.5447 123° Southeast 255 293 7,200 -879 Descending Cleveland Center
Wed 06:52:49 PM 42.5806 -83.4594 105° East 259 298 7,000 -621 Descending Cleveland Center
Wed 06:53:50 PM 42.5686 -83.3575 99° East 257 296 6,000 -1,082 Descending Cleveland Center
Wed 06:54:51 PM 42.5622 -83.2669 95° East 237 273 4,800 -938 Descending Cleveland Center
Wed 06:55:58 PM 42.5353 -83.1756 112° Southeast 210 242 4,000 -390 Descending Cleveland Center
Wed 06:56:54 PM 42.4978 -83.1683 172° South 162 186 4,000  Level Cleveland Center
Wed 06:57:55 PM 42.4556 -83.1975 207° Southwest 160 184 4,000  Level Cleveland Center
Wed 06:58:56 PM 42.4194 -83.2242 209° Southwest 160 184 4,000  Level Cleveland Center
Wed 06:59:51 PM 42.3811 -83.2536 210° Southwest 160 184 4,000 -422 Level Cleveland Center
Wed 07:01:04 PM 42.3325 -83.2881 208° Southwest 165 190 3,100 -836 Descending Cleveland Center
Wed 07:01:53 PM 42.3006 -83.3147 212° Southwest 167 192 2,300 -980 Descending Cleveland Center

Login

Don't have an account? Register now (free) for customized features, flight alerts, and more!